createdAt,value
2022-11-01T00:02:17.415Z,60.00
2022-11-01T00:04:44.975Z,59.20
2022-11-01T00:07:12.572Z,54.80
2022-11-01T00:09:40.162Z,59.40
2022-11-01T00:12:07.781Z,57.50
2022-11-01T00:14:35.339Z,52.60
2022-11-01T00:17:02.961Z,49.20
2022-11-01T00:19:30.569Z,48.80
2022-11-01T00:21:58.230Z,53.10
2022-11-01T00:24:25.831Z,49.80
2022-11-01T00:26:53.355Z,51.10
2022-11-01T00:29:20.872Z,46.10
2022-11-01T00:31:48.473Z,47.20
2022-11-01T00:34:16.785Z,47.60
2022-11-01T00:36:44.296Z,43.80
2022-11-01T00:39:15.501Z,47.50
2022-11-01T00:41:43.624Z,46.10
2022-11-01T00:44:11.193Z,44.60
2022-11-01T00:46:38.774Z,42.30
2022-11-01T00:49:06.322Z,43.80
2022-11-01T00:51:33.821Z,37.10
2022-11-01T00:54:01.709Z,37.10
2022-11-01T00:56:29.252Z,35.50
2022-11-01T00:58:56.778Z,35.50
2022-11-01T01:01:24.521Z,34.50
2022-11-01T01:03:52.132Z,35.80
2022-11-01T01:06:19.642Z,34.40
2022-11-01T01:08:47.199Z,35.60
2022-11-01T01:11:15.416Z,35.50
2022-11-01T01:13:43.248Z,34.70
2022-11-01T01:16:12.026Z,35.30
2022-11-01T01:18:39.573Z,36.40
2022-11-01T01:21:07.151Z,35.20
2022-11-01T01:23:35.635Z,34.50
2022-11-01T01:26:07.815Z,35.00
2022-11-01T01:28:40.113Z,33.80
2022-11-01T01:31:12.901Z,35.40
2022-11-01T01:33:40.483Z,35.40
2022-11-01T01:36:08.202Z,33.50
2022-11-01T01:38:35.735Z,32.00
2022-11-01T01:41:21.847Z,32.90
2022-11-01T01:43:49.339Z,33.70
2022-11-01T01:46:16.831Z,33.30
2022-11-01T01:48:46.880Z,34.90
2022-11-01T01:51:16.705Z,33.60
2022-11-01T01:53:46.446Z,33.30
2022-11-01T01:56:17.868Z,36.30
2022-11-01T01:58:54.954Z,36.30
2022-11-01T02:01:22.658Z,35.50
2022-11-01T02:03:51.062Z,38.20
2022-11-01T02:06:20.988Z,37.40
2022-11-01T02:08:55.789Z,37.00
2022-11-01T02:11:23.621Z,37.00
2022-11-01T02:13:51.475Z,36.80
2022-11-01T02:16:21.901Z,38.70
2022-11-01T02:19:04.718Z,35.90
2022-11-01T02:22:06.528Z,35.40
2022-11-01T02:24:43.180Z,35.90
2022-11-01T02:27:22.982Z,36.30
2022-11-01T02:29:56.531Z,38.80
2022-11-01T02:32:45.579Z,37.90
2022-11-01T02:35:42.426Z,40.90
2022-11-01T02:38:48.737Z,41.80
2022-11-01T02:41:36.222Z,41.00
2022-11-01T02:44:07.665Z,40.30
2022-11-01T02:46:58.231Z,38.60
2022-11-01T02:49:47.491Z,37.80
2022-11-01T02:52:18.558Z,37.30
2022-11-01T02:54:52.275Z,38.50
2022-11-01T02:57:32.781Z,39.30
2022-11-01T03:00:05.121Z,39.30
2022-11-01T03:02:41.689Z,41.00
2022-11-01T03:05:17.420Z,44.00
2022-11-01T03:07:48.305Z,43.20
2022-11-01T03:10:16.270Z,44.40
2022-11-01T03:12:52.249Z,45.30
2022-11-01T03:15:32.565Z,47.30
2022-11-01T03:18:04.720Z,49.40
2022-11-01T03:20:48.150Z,50.40
2022-11-01T03:23:24.560Z,51.80
2022-11-01T03:25:54.940Z,52.50
2022-11-01T03:28:37.136Z,54.40
2022-11-01T03:31:11.383Z,54.20
2022-11-01T03:33:44.103Z,57.00
2022-11-01T03:36:15.040Z,56.30
2022-11-01T03:38:45.921Z,59.60
2022-11-01T03:41:15.219Z,59.90
2022-11-01T03:43:43.145Z,62.20
2022-11-01T03:46:10.735Z,60.40
2022-11-01T03:48:40.002Z,60.10
2022-11-01T03:51:08.055Z,58.00
2022-11-01T03:53:35.997Z,58.90
2022-11-01T03:56:04.231Z,55.70
2022-11-01T03:58:45.107Z,56.90
2022-11-01T04:01:14.823Z,57.00
2022-11-01T04:03:43.167Z,55.90
2022-11-01T04:06:11.045Z,56.90
2022-11-01T04:08:38.684Z,56.90
2022-11-01T04:11:06.458Z,56.80
2022-11-01T04:13:34.031Z,74.30
2022-11-01T04:16:20.357Z,63.20
2022-11-01T04:19:06.873Z,56.80
2022-11-01T04:21:34.755Z,60.40
2022-11-01T04:24:02.287Z,56.30
2022-11-01T04:26:30.284Z,57.60
2022-11-01T04:28:58.012Z,57.80
2022-11-01T04:31:34.652Z,58.40
2022-11-01T04:34:04.236Z,58.70
2022-11-01T04:36:32.030Z,60.50
2022-11-01T04:38:59.606Z,62.50
2022-11-01T04:41:29.041Z,63.40
2022-11-01T04:43:59.666Z,63.00
2022-11-01T04:46:31.867Z,65.20
2022-11-01T04:48:59.409Z,68.50
2022-11-01T04:51:27.037Z,67.40
2022-11-01T04:53:54.617Z,67.50
2022-11-01T04:56:22.214Z,69.90
2022-11-01T04:58:49.901Z,72.80
2022-11-01T05:01:17.780Z,76.20
2022-11-01T05:03:45.504Z,76.10
2022-11-01T05:06:12.996Z,80.20
2022-11-01T05:08:40.519Z,83.90
2022-11-01T05:11:08.083Z,87.40
2022-11-01T05:13:36.077Z,84.20
2022-11-01T05:16:19.068Z,85.30
2022-11-01T05:18:48.338Z,84.60
2022-11-01T05:21:16.218Z,88.70
2022-11-01T05:23:43.808Z,86.70
2022-11-01T05:26:11.605Z,87.20
2022-11-01T05:28:39.147Z,85.30
2022-11-01T05:31:06.740Z,86.10
2022-11-01T05:33:34.487Z,80.10
2022-11-01T05:36:02.047Z,78.90
2022-11-01T05:38:29.622Z,76.20
2022-11-01T05:40:57.107Z,72.00
2022-11-01T05:43:24.834Z,70.00
2022-11-01T05:45:52.319Z,64.00
2022-11-01T05:48:19.882Z,64.00
2022-11-01T05:50:47.474Z,66.40
2022-11-01T05:53:14.985Z,71.90
2022-11-01T05:55:42.490Z,75.80
2022-11-01T05:58:10.027Z,74.80
2022-11-01T06:00:37.632Z,74.10
2022-11-01T06:03:05.892Z,69.30
2022-11-01T06:05:34.077Z,70.50
2022-11-01T06:08:02.580Z,70.60
2022-11-01T06:10:31.296Z,67.00
2022-11-01T06:12:59.584Z,69.90
2022-11-01T06:15:27.425Z,68.90
2022-11-01T06:17:57.250Z,67.90
2022-11-01T06:20:29.857Z,68.30
2022-11-01T06:22:58.173Z,64.30
2022-11-01T06:25:26.932Z,63.20
2022-11-01T06:27:54.723Z,64.60
2022-11-01T06:30:22.241Z,63.00
2022-11-01T06:32:49.815Z,61.30
2022-11-01T06:35:17.353Z,59.10
2022-11-01T06:37:44.847Z,59.90
2022-11-01T06:40:13.055Z,58.40
2022-11-01T06:42:45.501Z,56.60
2022-11-01T06:45:14.529Z,55.90
2022-11-01T06:47:46.778Z,55.00
2022-11-01T06:50:14.324Z,55.60
2022-11-01T06:52:41.845Z,55.70
2022-11-01T06:55:09.466Z,53.60
2022-11-01T06:57:37.027Z,53.70
2022-11-01T07:00:05.398Z,55.90
2022-11-01T07:02:33.045Z,56.00
2022-11-01T07:05:00.803Z,53.60
2022-11-01T07:07:28.533Z,54.80
2022-11-01T07:09:56.073Z,56.20
2022-11-01T07:12:23.538Z,56.30
2022-11-01T07:14:51.034Z,54.40
2022-11-01T07:17:18.551Z,53.60
2022-11-01T07:19:46.457Z,50.30
2022-11-01T07:22:14.844Z,51.70
2022-11-01T07:24:42.337Z,52.40
2022-11-01T07:27:09.895Z,50.80
2022-11-01T07:29:39.381Z,50.60
2022-11-01T07:32:07.287Z,47.90
2022-11-01T07:34:34.810Z,49.30
2022-11-01T07:37:02.334Z,50.10
2022-11-01T07:39:29.860Z,52.10
2022-11-01T07:41:59.001Z,50.80
2022-11-01T07:44:26.618Z,49.40
2022-11-01T07:46:54.211Z,45.30
2022-11-01T07:49:21.703Z,47.00
2022-11-01T07:51:49.203Z,41.40
2022-11-01T07:54:16.706Z,44.80
2022-11-01T07:56:44.244Z,40.70
2022-11-01T07:59:12.112Z,40.60
2022-11-01T08:01:39.714Z,39.30
2022-11-01T08:04:07.346Z,38.00
2022-11-01T08:06:34.867Z,39.20
2022-11-01T08:09:02.449Z,40.20
2022-11-01T08:11:29.958Z,39.90
2022-11-01T08:14:02.811Z,39.70
2022-11-01T08:16:33.709Z,39.10
2022-11-01T08:19:01.235Z,39.40
2022-11-01T08:21:28.767Z,41.50
2022-11-01T08:23:56.278Z,40.20
2022-11-01T08:26:23.802Z,39.90
2022-11-01T08:28:51.334Z,42.00
2022-11-01T08:31:18.862Z,39.70
2022-11-01T08:33:46.783Z,39.00
2022-11-01T08:36:15.259Z,39.60
2022-11-01T08:38:44.360Z,38.00
2022-11-01T08:41:11.891Z,39.30
2022-11-01T08:43:40.710Z,38.50
2022-11-01T08:46:10.745Z,40.90
2022-11-01T08:48:38.309Z,40.00
2022-11-01T08:51:06.077Z,40.10
2022-11-01T08:53:33.615Z,40.10
2022-11-01T08:56:01.120Z,38.30
2022-11-01T08:58:28.625Z,38.80
2022-11-01T09:00:56.188Z,42.40
2022-11-01T09:03:23.782Z,41.60
2022-11-01T09:05:51.346Z,43.50
2022-11-01T09:08:18.858Z,43.80
2022-11-01T09:10:46.382Z,40.50
2022-11-01T09:13:14.002Z,40.80
2022-11-01T09:15:41.629Z,42.10
2022-11-01T09:18:09.221Z,43.70
2022-11-01T09:20:36.750Z,43.50
2022-11-01T09:23:04.868Z,43.40
2022-11-01T09:25:32.726Z,44.10
2022-11-01T09:28:00.529Z,44.10
2022-11-01T09:30:28.720Z,47.60
2022-11-01T09:32:56.216Z,47.90
2022-11-01T09:35:23.729Z,49.10
2022-11-01T09:37:57.735Z,50.70
2022-11-01T09:40:27.628Z,50.40
2022-11-01T09:43:00.564Z,51.10
2022-11-01T09:45:31.565Z,53.70
2022-11-01T09:48:02.259Z,54.00
2022-11-01T09:50:34.263Z,55.10
2022-11-01T09:53:07.456Z,54.50
2022-11-01T09:55:58.164Z,57.30
2022-11-01T09:58:38.100Z,57.30
2022-11-01T10:01:15.412Z,64.10
2022-11-01T10:03:55.433Z,65.10
2022-11-01T10:06:26.674Z,65.40
2022-11-01T10:09:19.243Z,70.60
2022-11-01T10:12:03.042Z,71.90
2022-11-01T10:15:12.435Z,76.20
2022-11-01T10:18:05.173Z,77.90
2022-11-01T10:20:37.125Z,80.20
2022-11-01T10:23:06.005Z,78.90
2022-11-01T10:25:36.716Z,80.60
2022-11-01T10:28:09.671Z,81.50
2022-11-01T10:30:46.740Z,83.10
2022-11-01T10:33:26.239Z,84.20
2022-11-01T10:35:58.321Z,86.90
2022-11-01T10:39:10.327Z,86.60
2022-11-01T10:41:31.228Z,90.10
2022-11-01T10:44:02.598Z,91.40
2022-11-01T10:46:36.724Z,91.20
2022-11-01T10:49:07.518Z,93.40
2022-11-01T10:51:35.271Z,91.80
2022-11-01T10:54:05.147Z,95.90
2022-11-01T10:56:37.660Z,94.90
2022-11-01T10:59:11.873Z,95.70
2022-11-01T11:01:44.286Z,95.00
2022-11-01T11:04:15.716Z,96.60
2022-11-01T11:06:43.857Z,99.10
2022-11-01T11:09:22.026Z,101.60
2022-11-01T11:11:50.780Z,99.00
2022-11-01T11:14:20.811Z,99.30
2022-11-01T11:16:58.383Z,100.10
2022-11-01T11:19:28.932Z,97.10
2022-11-01T11:21:57.823Z,94.50
2022-11-01T11:24:31.209Z,85.80
2022-11-01T11:26:59.097Z,83.80
2022-11-01T11:29:49.392Z,85.80
2022-11-01T11:32:38.772Z,84.10
2022-11-01T11:35:16.396Z,87.60
2022-11-01T11:37:53.235Z,87.40
2022-11-01T11:40:41.042Z,83.30
2022-11-01T11:43:24.160Z,85.60
2022-11-01T11:46:05.150Z,83.80
2022-11-01T11:48:32.902Z,81.00
2022-11-01T11:51:02.902Z,80.70
2022-11-01T11:53:30.668Z,73.90
2022-11-01T11:56:01.141Z,74.70
2022-11-01T11:58:42.158Z,75.30
2022-11-01T12:01:15.667Z,77.50
2022-11-01T12:03:50.564Z,80.50
2022-11-01T12:06:21.307Z,81.10
2022-11-01T12:08:53.296Z,79.30
2022-11-01T12:11:23.215Z,79.80
2022-11-01T12:14:02.651Z,68.10
2022-11-01T12:16:30.362Z,67.30
2022-11-01T12:19:00.029Z,66.80
2022-11-01T12:21:37.068Z,69.40
2022-11-01T12:24:29.348Z,72.80
2022-11-01T12:27:01.752Z,74.30
2022-11-01T12:29:35.058Z,77.30
2022-11-01T12:32:09.851Z,79.20
2022-11-01T12:34:42.373Z,79.30
2022-11-01T12:37:45.541Z,80.80
2022-11-01T12:40:19.295Z,107.70
2022-11-01T12:42:51.771Z,85.90
2022-11-01T12:45:24.286Z,85.90
2022-11-01T12:48:22.207Z,92.70
2022-11-01T12:51:21.640Z,103.10
2022-11-01T12:53:55.317Z,76.70
2022-11-01T12:56:23.304Z,79.30
2022-11-01T12:58:55.926Z,71.10
2022-11-01T13:01:33.343Z,81.00
2022-11-01T13:04:33.771Z,77.90
2022-11-01T13:07:10.800Z,80.20
2022-11-01T13:10:05.250Z,86.10
2022-11-01T13:12:42.297Z,75.60
2022-11-01T13:15:18.285Z,89.00
2022-11-01T13:17:54.500Z,71.70
2022-11-01T13:20:34.054Z,86.00
2022-11-01T13:23:14.998Z,79.50
2022-11-01T13:25:58.194Z,66.30
2022-11-01T13:28:47.887Z,60.50
2022-11-01T13:31:35.531Z,55.70
2022-11-01T13:34:36.494Z,55.50
2022-11-01T13:37:21.031Z,52.10
2022-11-01T13:40:03.577Z,53.00
2022-11-01T13:42:39.741Z,55.30
2022-11-01T13:45:07.228Z,54.10
2022-11-01T13:47:47.027Z,55.40
2022-11-01T13:50:52.688Z,58.20
2022-11-01T13:53:34.062Z,58.10
2022-11-01T13:56:09.562Z,57.30
2022-11-01T13:58:37.192Z,57.40
2022-11-01T14:01:30.167Z,56.20
2022-11-01T14:04:16.472Z,55.70
2022-11-01T14:06:51.546Z,58.90
2022-11-01T14:09:25.790Z,57.80
2022-11-01T14:12:19.768Z,58.40
2022-11-01T14:14:47.232Z,57.40
2022-11-01T14:17:20.671Z,57.70
2022-11-01T14:19:55.742Z,58.40
2022-11-01T14:22:24.219Z,57.80
2022-11-01T14:24:54.112Z,58.30
2022-11-01T14:27:34.920Z,58.80
2022-11-01T14:30:23.549Z,57.50
2022-11-01T14:32:54.963Z,62.50
2022-11-01T14:35:52.806Z,58.60
2022-11-01T14:38:26.904Z,55.70
2022-11-01T14:40:56.784Z,56.70
2022-11-01T14:43:33.359Z,56.40
2022-11-01T14:46:04.192Z,56.10
2022-11-01T14:48:40.347Z,55.30
2022-11-01T14:51:30.976Z,54.90
2022-11-01T14:54:07.048Z,54.00
2022-11-01T14:56:40.843Z,55.00
2022-11-01T14:59:22.555Z,53.90
2022-11-01T15:01:55.962Z,55.20
2022-11-01T15:04:30.856Z,54.50
2022-11-01T15:07:00.209Z,55.80
2022-11-01T15:09:30.965Z,58.20
2022-11-01T15:12:08.417Z,57.50
2022-11-01T15:14:42.039Z,57.90
2022-11-01T15:17:23.831Z,56.70
2022-11-01T15:19:55.394Z,57.80
2022-11-01T15:22:25.770Z,60.30
2022-11-01T15:24:57.365Z,61.10
2022-11-01T15:27:31.595Z,60.20
2022-11-01T15:29:59.199Z,60.60
2022-11-01T15:32:30.403Z,58.70
2022-11-01T15:35:00.368Z,58.30
2022-11-01T15:37:33.566Z,60.60
2022-11-01T15:40:06.641Z,59.60
2022-11-01T15:42:34.897Z,62.60
2022-11-01T15:45:29.665Z,63.50
2022-11-01T15:48:21.376Z,61.40
2022-11-01T15:50:51.151Z,62.90
2022-11-01T15:53:25.576Z,62.30
2022-11-01T15:56:05.519Z,62.80
2022-11-01T15:58:38.212Z,64.00
2022-11-01T16:01:13.523Z,63.30
2022-11-01T16:04:03.146Z,66.10
2022-11-01T16:06:44.581Z,63.30
2022-11-01T16:09:25.088Z,61.50
2022-11-01T16:11:59.059Z,62.20
2022-11-01T16:14:30.635Z,66.00
2022-11-01T16:17:02.645Z,65.80
2022-11-01T16:19:48.094Z,66.10
2022-11-01T16:22:46.221Z,65.50
2022-11-01T16:25:17.820Z,63.90
2022-11-01T16:28:04.530Z,65.20
2022-11-01T16:30:40.275Z,64.20
2022-11-01T16:33:24.062Z,65.40
2022-11-01T16:35:56.824Z,68.80
2022-11-01T16:38:27.186Z,69.30
2022-11-01T16:40:58.832Z,65.20
2022-11-01T16:43:28.341Z,63.60
2022-11-01T16:45:56.235Z,63.70
2022-11-01T16:48:25.934Z,64.00
2022-11-01T16:50:55.290Z,62.70
2022-11-01T16:53:24.996Z,64.00
2022-11-01T16:56:10.877Z,63.60
2022-11-01T16:58:48.085Z,64.50
2022-11-01T17:01:25.173Z,62.90
2022-11-01T17:03:53.152Z,61.70
2022-11-01T17:06:21.168Z,61.60
2022-11-01T17:08:48.732Z,64.20
2022-11-01T17:11:16.704Z,64.90
2022-11-01T17:13:44.184Z,63.70
2022-11-01T17:16:21.367Z,60.30
2022-11-01T17:18:49.899Z,61.30
2022-11-01T17:21:17.409Z,63.00
2022-11-01T17:23:45.018Z,63.70
2022-11-01T17:26:14.316Z,62.70
2022-11-01T17:28:42.117Z,63.20
2022-11-01T17:31:09.691Z,63.60
2022-11-01T17:33:37.264Z,65.80
2022-11-01T17:36:05.071Z,66.30
2022-11-01T17:38:34.629Z,67.90
2022-11-01T17:41:04.089Z,67.60
2022-11-01T17:43:31.615Z,62.50
2022-11-01T17:46:00.199Z,62.90
2022-11-01T17:48:28.052Z,61.30
2022-11-01T17:51:00.129Z,65.40
2022-11-01T17:53:27.684Z,62.30
2022-11-01T17:55:57.627Z,63.10
2022-11-01T17:58:25.174Z,62.20
2022-11-01T18:00:52.770Z,61.10
2022-11-01T18:03:20.442Z,59.80
2022-11-01T18:05:48.034Z,61.50
2022-11-01T18:08:18.584Z,61.20
2022-11-01T18:11:04.572Z,59.50
2022-11-01T18:14:02.665Z,60.30
2022-11-01T18:16:44.244Z,61.60
2022-11-01T18:19:34.566Z,61.00
2022-11-01T18:22:26.724Z,61.10
2022-11-01T18:25:05.363Z,60.60
2022-11-01T18:27:35.786Z,59.70
2022-11-01T18:30:14.995Z,60.90
2022-11-01T18:32:47.858Z,61.80
2022-11-01T18:35:31.731Z,64.90
2022-11-01T18:38:17.901Z,64.20
2022-11-01T18:41:01.193Z,78.20
2022-11-01T18:43:32.444Z,81.40
2022-11-01T18:46:23.835Z,83.30
2022-11-01T18:49:02.077Z,87.40
2022-11-01T18:51:32.702Z,87.10
2022-11-01T18:54:09.249Z,87.30
2022-11-01T18:56:38.579Z,91.20
2022-11-01T18:59:34.028Z,91.80
2022-11-01T19:02:10.785Z,90.90
2022-11-01T19:04:41.125Z,93.40
2022-11-01T19:07:20.555Z,88.40
2022-11-01T19:10:02.968Z,90.20
2022-11-01T19:12:43.416Z,86.90
2022-11-01T19:15:13.696Z,90.30
2022-11-01T19:17:47.922Z,91.70
2022-11-01T19:20:38.620Z,88.30
2022-11-01T19:23:22.275Z,83.10
2022-11-01T19:25:50.453Z,83.00
2022-11-01T19:28:33.169Z,83.00
2022-11-01T19:31:16.162Z,76.90
2022-11-01T19:33:45.447Z,79.10
2022-11-01T19:36:17.197Z,78.60
2022-11-01T19:38:46.108Z,80.80
2022-11-01T19:41:34.405Z,85.00
2022-11-01T19:44:10.390Z,81.00
2022-11-01T19:46:37.915Z,81.50
2022-11-01T19:49:31.632Z,83.60
2022-11-01T19:52:27.209Z,82.80
2022-11-01T19:54:55.130Z,80.80
2022-11-01T19:57:37.529Z,81.90
2022-11-01T20:00:20.303Z,80.10
2022-11-01T20:02:49.205Z,82.60
2022-11-01T20:05:23.658Z,85.70
2022-11-01T20:07:51.326Z,87.10
2022-11-01T20:10:18.836Z,83.10
2022-11-01T20:12:46.463Z,87.30
2022-11-01T20:15:14.063Z,87.80
2022-11-01T20:17:41.574Z,87.60
2022-11-01T20:20:12.405Z,89.10
2022-11-01T20:22:41.802Z,89.40
2022-11-01T20:25:09.907Z,88.90
2022-11-01T20:27:37.587Z,87.10
2022-11-01T20:30:05.888Z,82.50
2022-11-01T20:32:34.140Z,79.80
2022-11-01T20:35:01.904Z,77.00
2022-11-01T20:37:29.512Z,72.00
2022-11-01T20:39:57.342Z,72.00
2022-11-01T20:42:24.963Z,69.30
2022-11-01T20:44:52.477Z,72.40
2022-11-01T20:47:19.969Z,68.40
2022-11-01T20:49:47.476Z,67.50
2022-11-01T20:52:40.674Z,65.40
2022-11-01T20:55:02.506Z,63.70
2022-11-01T20:57:30.733Z,62.40
2022-11-01T20:59:58.417Z,64.60
2022-11-01T21:02:27.201Z,61.60
2022-11-01T21:05:01.107Z,60.90
2022-11-01T21:07:31.018Z,61.60
2022-11-01T21:09:58.771Z,63.40
2022-11-01T21:12:39.925Z,63.00
2022-11-01T21:15:25.613Z,62.30
2022-11-01T21:18:18.291Z,61.70
2022-11-01T21:20:47.336Z,60.80
2022-11-01T21:23:21.040Z,62.70
2022-11-01T21:25:49.819Z,62.20
2022-11-01T21:28:39.950Z,60.70
2022-11-01T21:31:10.666Z,61.30
2022-11-01T21:33:40.142Z,60.90
2022-11-01T21:36:20.528Z,60.50
2022-11-01T21:38:56.822Z,60.90
2022-11-01T21:41:35.126Z,58.30
2022-11-01T21:44:32.855Z,59.40
2022-11-01T21:47:06.349Z,57.70
2022-11-01T21:49:34.617Z,58.20
2022-11-01T21:52:04.577Z,58.80
2022-11-01T21:54:33.990Z,58.80
2022-11-01T21:57:02.614Z,57.80
2022-11-01T21:59:30.521Z,56.40
2022-11-01T22:02:01.277Z,56.60
2022-11-01T22:04:30.961Z,56.20
2022-11-01T22:07:00.173Z,55.40
2022-11-01T22:09:28.268Z,57.20
2022-11-01T22:11:55.870Z,56.70
2022-11-01T22:14:24.319Z,56.60
2022-11-01T22:16:51.968Z,56.40
2022-11-01T22:19:19.749Z,56.20
2022-11-01T22:21:47.258Z,56.40
2022-11-01T22:24:14.832Z,56.80
2022-11-01T22:26:42.351Z,56.20
2022-11-01T22:29:09.902Z,54.60
2022-11-01T22:31:37.433Z,56.20
2022-11-01T22:34:04.992Z,57.50
2022-11-01T22:36:35.700Z,56.70
2022-11-01T22:39:22.924Z,59.00
2022-11-01T22:41:50.890Z,56.20
2022-11-01T22:44:37.626Z,57.00
2022-11-01T22:47:06.559Z,57.50
2022-11-01T22:49:35.647Z,58.50
2022-11-01T22:52:26.749Z,58.60
2022-11-01T22:55:02.930Z,57.40
2022-11-01T22:57:33.598Z,58.30
2022-11-01T23:00:09.939Z,60.10
2022-11-01T23:02:38.807Z,60.80
2022-11-01T23:05:06.389Z,61.00
2022-11-01T23:07:45.599Z,65.30
2022-11-01T23:10:33.984Z,61.30
2022-11-01T23:13:29.740Z,65.40
2022-11-01T23:16:02.771Z,68.00
2022-11-01T23:18:32.303Z,71.00
2022-11-01T23:21:06.623Z,67.70
2022-11-01T23:23:40.745Z,69.70
2022-11-01T23:26:08.673Z,71.90
2022-11-01T23:28:40.045Z,73.60
2022-11-01T23:31:07.899Z,78.00
2022-11-01T23:33:40.014Z,75.80
2022-11-01T23:36:14.916Z,79.90
2022-11-01T23:38:47.163Z,77.90
2022-11-01T23:41:24.063Z,78.90
2022-11-01T23:43:55.098Z,78.90
2022-11-01T23:46:23.614Z,77.90
2022-11-01T23:48:54.031Z,77.80
2022-11-01T23:51:21.544Z,76.90
2022-11-01T23:53:51.588Z,76.30
2022-11-01T23:56:20.284Z,74.00
2022-11-01T23:58:54.314Z,73.70
